createdAt,value
2019-04-05T00:00:15.863Z,8.30
2019-04-05T00:01:15.786Z,8.40
2019-04-05T00:02:15.783Z,8.80
2019-04-05T00:03:15.792Z,8.40
2019-04-05T00:04:15.757Z,8.60
2019-04-05T00:05:15.744Z,8.20
2019-04-05T00:06:15.737Z,8.00
2019-04-05T00:07:15.722Z,8.70
2019-04-05T00:08:15.716Z,8.50
2019-04-05T00:09:15.761Z,8.40
2019-04-05T00:10:15.692Z,8.00
2019-04-05T00:11:15.694Z,8.20
2019-04-05T00:12:15.671Z,8.60
2019-04-05T00:13:15.663Z,8.50
2019-04-05T00:14:15.654Z,8.80
2019-04-05T00:15:16.177Z,8.80
2019-04-05T00:16:15.628Z,8.20
2019-04-05T00:17:15.615Z,8.60
2019-04-05T00:18:15.600Z,8.30
2019-04-05T00:19:15.664Z,8.80
2019-04-05T00:20:15.585Z,8.30
2019-04-05T00:21:15.573Z,7.80
2019-04-05T00:22:15.561Z,8.80
2019-04-05T00:23:15.547Z,8.80
2019-04-05T00:24:15.538Z,9.00
2019-04-05T00:25:15.551Z,8.70
2019-04-05T00:26:15.516Z,8.20
2019-04-05T00:27:15.507Z,8.20
2019-04-05T00:28:15.506Z,8.70
2019-04-05T00:29:15.544Z,8.30
2019-04-05T00:30:15.470Z,8.30
2019-04-05T00:31:15.467Z,9.10
2019-04-05T00:32:15.489Z,8.80
2019-04-05T00:33:15.441Z,8.60
2019-04-05T00:34:15.427Z,8.50
2019-04-05T00:35:15.432Z,9.30
2019-04-05T00:36:15.406Z,8.50
2019-04-05T00:37:15.395Z,8.60
2019-04-05T00:38:15.390Z,8.20
2019-04-05T00:39:15.379Z,8.90
2019-04-05T00:40:15.411Z,8.70
2019-04-05T00:41:15.361Z,8.90
2019-04-05T00:42:15.408Z,9.20
2019-04-05T00:43:15.334Z,8.90
2019-04-05T00:44:15.326Z,8.40
2019-04-05T00:45:27.210Z,8.40
2019-04-05T00:46:16.309Z,8.80
2019-04-05T00:47:15.289Z,8.40
2019-04-05T00:48:15.281Z,8.60
2019-04-05T00:49:15.270Z,8.70
2019-04-05T00:50:15.332Z,8.60
2019-04-05T00:51:15.246Z,8.70
2019-04-05T00:52:15.233Z,9.10
2019-04-05T00:53:15.230Z,8.60
2019-04-05T00:54:15.210Z,9.00
2019-04-05T00:55:15.212Z,8.80
2019-04-05T00:56:15.206Z,8.60
2019-04-05T00:57:15.225Z,8.80
2019-04-05T00:58:15.171Z,8.70
2019-04-05T00:59:15.157Z,8.50
2019-04-05T01:00:15.146Z,9.10
2019-04-05T01:01:15.141Z,8.70
2019-04-05T01:02:15.129Z,9.20
2019-04-05T01:03:15.127Z,9.10
2019-04-05T01:04:15.117Z,8.70
2019-04-05T01:05:15.097Z,9.30
2019-04-05T01:06:15.141Z,8.80
2019-04-05T01:07:15.078Z,9.60
2019-04-05T01:08:15.062Z,9.30
2019-04-05T01:09:15.058Z,8.90
2019-04-05T01:10:15.041Z,8.50
2019-04-05T01:11:15.079Z,8.90
2019-04-05T01:12:15.064Z,8.60
2019-04-05T01:13:15.009Z,9.00
2019-04-05T01:14:15.054Z,9.20
2019-04-05T01:15:14.987Z,8.80
2019-04-05T01:16:14.972Z,8.70
2019-04-05T01:17:24.494Z,9.20
2019-04-05T01:18:15.948Z,9.00
2019-04-05T01:19:14.985Z,8.70
2019-04-05T01:20:14.929Z,9.00
2019-04-05T01:21:14.923Z,9.00
2019-04-05T01:22:14.908Z,9.30
2019-04-05T01:23:14.921Z,9.10
2019-04-05T01:24:14.891Z,9.00
2019-04-05T01:25:14.882Z,9.20
2019-04-05T01:26:14.862Z,8.90
2019-04-05T01:27:14.856Z,9.00
2019-04-05T01:28:14.841Z,8.80
2019-04-05T01:29:14.875Z,9.50
2019-04-05T01:30:14.819Z,9.80
2019-04-05T01:31:14.814Z,8.80
2019-04-05T01:32:14.811Z,9.40
2019-04-05T01:33:14.793Z,9.60
2019-04-05T01:34:14.778Z,10.30
2019-04-05T01:35:14.826Z,9.70
2019-04-05T01:36:14.757Z,9.00
2019-04-05T01:37:14.744Z,9.00
2019-04-05T01:38:14.738Z,8.90
2019-04-05T01:39:14.723Z,8.90
2019-04-05T01:40:14.717Z,9.10
2019-04-05T01:41:14.778Z,9.70
2019-04-05T01:42:14.692Z,9.40
2019-04-05T01:43:14.691Z,10.00
2019-04-05T01:44:14.744Z,10.20
2019-04-05T01:45:14.660Z,9.20
2019-04-05T01:46:14.645Z,9.60
2019-04-05T01:47:14.641Z,9.30
2019-04-05T01:48:14.627Z,9.60
2019-04-05T01:49:14.653Z,9.80
2019-04-05T01:50:14.612Z,10.30
2019-04-05T01:51:14.590Z,9.80
2019-04-05T01:52:14.641Z,9.20
2019-04-05T01:53:14.568Z,9.50
2019-04-05T01:54:14.561Z,10.10
2019-04-05T01:55:14.621Z,9.10
2019-04-05T01:56:14.540Z,9.40
2019-04-05T01:57:14.528Z,9.10
2019-04-05T01:58:14.514Z,10.10
2019-04-05T01:59:14.511Z,9.70
2019-04-05T02:00:14.503Z,10.10
2019-04-05T02:01:14.495Z,10.50
2019-04-05T02:02:14.476Z,9.80
2019-04-05T02:03:14.460Z,10.00
2019-04-05T02:04:14.451Z,9.70
2019-04-05T02:05:14.441Z,9.60
2019-04-05T02:06:14.483Z,10.20
2019-04-05T02:07:14.419Z,9.80
2019-04-05T02:08:14.419Z,9.60
2019-04-05T02:09:14.398Z,9.70
2019-04-05T02:10:14.383Z,9.70
2019-04-05T02:11:14.425Z,9.60
2019-04-05T02:12:14.364Z,10.20
2019-04-05T02:13:14.356Z,10.00
2019-04-05T02:14:14.337Z,10.00
2019-04-05T02:15:14.325Z,10.50
2019-04-05T02:16:14.373Z,9.90
2019-04-05T02:17:14.316Z,10.00
2019-04-05T02:18:14.293Z,9.30
2019-04-05T02:19:14.284Z,10.40
2019-04-05T02:20:14.281Z,10.10
2019-04-05T02:21:14.314Z,10.60
2019-04-05T02:22:14.264Z,10.20
2019-04-05T02:23:14.238Z,10.20
2019-04-05T02:24:14.234Z,10.70
2019-04-05T02:25:14.220Z,9.40
2019-04-05T02:26:14.246Z,10.60
2019-04-05T02:27:14.194Z,9.20
2019-04-05T02:28:14.185Z,9.90
2019-04-05T02:29:14.172Z,9.70
2019-04-05T02:30:14.166Z,10.40
2019-04-05T02:31:14.158Z,9.70
2019-04-05T02:32:14.201Z,10.20
2019-04-05T02:33:14.167Z,9.50
2019-04-05T02:34:14.124Z,10.90
2019-04-05T02:35:14.115Z,10.60
2019-04-05T02:36:14.101Z,10.40
2019-04-05T02:37:14.145Z,10.50
2019-04-05T02:38:14.128Z,9.80
2019-04-05T02:39:14.065Z,10.20
2019-04-05T02:40:14.059Z,10.10
2019-04-05T02:41:14.041Z,10.50
2019-04-05T02:42:14.036Z,10.40
2019-04-05T02:43:14.060Z,10.20
2019-04-05T02:44:14.028Z,10.60
2019-04-05T02:45:14.007Z,10.50
2019-04-05T02:46:23.507Z,10.30
2019-04-05T02:47:14.983Z,10.40
2019-04-05T02:48:13.991Z,10.60
2019-04-05T02:49:13.953Z,10.20
2019-04-05T02:50:13.940Z,10.80
2019-04-05T02:51:13.931Z,10.50
2019-04-05T02:52:13.926Z,10.60
2019-04-05T02:53:13.908Z,10.40
2019-04-05T02:54:13.916Z,10.40
2019-04-05T02:55:13.891Z,10.90
2019-04-05T02:56:13.885Z,10.40
2019-04-05T02:57:13.866Z,10.30
2019-04-05T02:58:13.853Z,10.40
2019-04-05T02:59:14.095Z,10.50
2019-04-05T03:00:13.839Z,10.30
2019-04-05T03:01:13.828Z,10.70
2019-04-05T03:02:13.815Z,10.40
2019-04-05T03:03:13.800Z,10.10
2019-04-05T03:04:13.797Z,10.90
2019-04-05T03:05:13.794Z,10.40
2019-04-05T03:06:13.785Z,11.10
2019-04-05T03:07:13.760Z,10.40
2019-04-05T03:08:13.748Z,10.90
2019-04-05T03:09:13.739Z,10.60
2019-04-05T03:10:13.780Z,10.60
2019-04-05T03:11:13.713Z,10.50
2019-04-05T03:12:13.704Z,10.00
2019-04-05T03:13:13.695Z,10.20
2019-04-05T03:14:13.738Z,11.30
2019-04-05T03:15:13.668Z,10.70
2019-04-05T03:16:13.664Z,10.40
2019-04-05T03:17:13.651Z,10.50
2019-04-05T03:18:13.644Z,10.90
2019-04-05T03:19:13.630Z,10.50
2019-04-05T03:20:13.693Z,11.50
2019-04-05T03:21:13.609Z,10.50
2019-04-05T03:22:13.602Z,10.80
2019-04-05T03:23:13.583Z,11.00
2019-04-05T03:24:13.573Z,11.20
2019-04-05T03:25:13.621Z,10.40
2019-04-05T03:26:13.567Z,11.00
2019-04-05T03:27:13.545Z,10.80
2019-04-05T03:28:13.532Z,11.00
2019-04-05T03:29:13.523Z,11.30
2019-04-05T03:30:13.596Z,10.60
2019-04-05T03:31:13.528Z,11.10
2019-04-05T03:32:13.494Z,10.90
2019-04-05T03:33:13.487Z,11.30
2019-04-05T03:34:13.463Z,10.50
2019-04-05T03:35:13.453Z,11.10
2019-04-05T03:36:13.497Z,11.20
2019-04-05T03:37:13.428Z,10.80
2019-04-05T03:38:13.427Z,10.10
2019-04-05T03:39:13.406Z,10.60
2019-04-05T03:40:13.393Z,11.30
2019-04-05T03:41:13.438Z,10.90
2019-04-05T03:42:13.384Z,11.10
2019-04-05T03:43:13.366Z,10.40
2019-04-05T03:44:13.355Z,11.30
2019-04-05T03:45:13.345Z,11.80
2019-04-05T03:46:13.395Z,11.10
2019-04-05T03:47:13.337Z,10.40
2019-04-05T03:48:13.308Z,11.10
2019-04-05T03:49:13.294Z,10.90
2019-04-05T03:50:13.288Z,11.00
2019-04-05T03:51:13.273Z,10.90
2019-04-05T03:52:13.373Z,11.20
2019-04-05T03:53:13.266Z,11.40
2019-04-05T03:54:13.246Z,11.40
2019-04-05T03:55:13.228Z,11.60
2019-04-05T03:56:13.224Z,11.90
2019-04-05T03:57:13.209Z,11.00
2019-04-05T03:58:13.213Z,11.10
2019-04-05T03:59:13.185Z,11.30
2019-04-05T04:00:13.193Z,11.30
2019-04-05T04:01:13.172Z,10.70
2019-04-05T04:02:13.159Z,11.40
2019-04-05T04:03:14.027Z,11.10
2019-04-05T04:04:13.137Z,10.90
2019-04-05T04:05:13.131Z,11.20
2019-04-05T04:06:13.110Z,11.00
2019-04-05T04:07:13.102Z,11.20
2019-04-05T04:08:13.097Z,11.20
2019-04-05T04:09:13.082Z,10.60
2019-04-05T04:10:13.072Z,11.10
2019-04-05T04:11:13.061Z,11.00
2019-04-05T04:12:13.059Z,10.70
2019-04-05T04:13:13.046Z,10.70
2019-04-05T04:14:13.026Z,11.30
2019-04-05T04:15:14.111Z,11.20
2019-04-05T04:16:13.004Z,10.80
2019-04-05T04:17:13.659Z,11.70
2019-04-05T04:18:12.990Z,10.90
2019-04-05T04:19:12.990Z,11.60
2019-04-05T04:20:12.962Z,10.70
2019-04-05T04:21:12.947Z,10.90
2019-04-05T04:22:12.940Z,10.60
2019-04-05T04:23:12.982Z,10.70
2019-04-05T04:24:12.918Z,10.80
2019-04-05T04:25:12.907Z,10.90
2019-04-05T04:26:12.933Z,11.20
2019-04-05T04:27:12.886Z,10.90
2019-04-05T04:28:12.953Z,10.80
2019-04-05T04:29:12.867Z,12.40
2019-04-05T04:30:12.848Z,10.90
2019-04-05T04:31:12.837Z,10.80
2019-04-05T04:32:12.830Z,11.50
2019-04-05T04:33:12.823Z,11.10
2019-04-05T04:34:12.882Z,11.00
2019-04-05T04:35:12.797Z,11.10
2019-04-05T04:36:13.317Z,11.50
2019-04-05T04:37:12.771Z,11.30
2019-04-05T04:38:12.764Z,11.30
2019-04-05T04:39:12.760Z,11.20
2019-04-05T04:40:12.759Z,10.80
2019-04-05T04:41:12.728Z,11.20
2019-04-05T04:42:12.718Z,10.70
2019-04-05T04:43:12.710Z,11.20
2019-04-05T04:44:12.751Z,11.30
2019-04-05T04:45:13.057Z,11.10
2019-04-05T04:46:12.678Z,10.80
2019-04-05T04:47:25.463Z,11.30
2019-04-05T04:48:13.657Z,11.60
2019-04-05T04:49:12.675Z,13.40
2019-04-05T04:50:12.643Z,20.10
2019-04-05T04:51:12.620Z,14.20
2019-04-05T04:52:12.647Z,11.80
2019-04-05T04:53:12.598Z,11.50
2019-04-05T04:54:12.641Z,11.40
2019-04-05T04:55:12.606Z,11.70
2019-04-05T04:56:12.567Z,11.60
2019-04-05T04:57:12.549Z,11.00
2019-04-05T04:58:12.543Z,11.70
2019-04-05T04:59:12.528Z,11.80
2019-04-05T05:00:12.550Z,11.50
2019-04-05T05:01:12.532Z,11.60
2019-04-05T05:02:12.508Z,11.40
2019-04-05T05:03:12.490Z,11.60
2019-04-05T05:04:12.478Z,11.50
2019-04-05T05:05:12.467Z,11.00
2019-04-05T05:06:12.511Z,11.50
2019-04-05T05:07:12.446Z,11.80
2019-04-05T05:08:12.434Z,11.00
2019-04-05T05:09:12.418Z,12.00
2019-04-05T05:10:12.423Z,11.00
2019-04-05T05:11:14.885Z,11.70
2019-04-05T05:12:12.387Z,12.00
2019-04-05T05:13:12.376Z,11.20
2019-04-05T05:14:12.361Z,10.90
2019-04-05T05:15:12.351Z,12.20
2019-04-05T05:16:12.353Z,12.40
2019-04-05T05:17:12.335Z,11.70
2019-04-05T05:18:12.317Z,12.10
2019-04-05T05:19:12.310Z,16.10
2019-04-05T05:20:12.333Z,14.00
2019-04-05T05:21:12.354Z,11.70
2019-04-05T05:22:12.274Z,11.90
2019-04-05T05:23:12.295Z,11.90
2019-04-05T05:24:12.300Z,12.00
2019-04-05T05:25:12.274Z,11.60
2019-04-05T05:26:12.233Z,12.20
2019-04-05T05:27:12.228Z,11.20
2019-04-05T05:28:12.210Z,12.30
2019-04-05T05:29:12.203Z,11.80
2019-04-05T05:30:12.197Z,11.90
2019-04-05T05:31:12.253Z,12.20
2019-04-05T05:32:12.170Z,11.60
2019-04-05T05:33:12.160Z,11.30
2019-04-05T05:34:12.147Z,14.80
2019-04-05T05:35:12.130Z,16.30
2019-04-05T05:36:12.124Z,12.70
2019-04-05T05:37:12.167Z,16.20
2019-04-05T05:38:12.111Z,13.10
2019-04-05T05:39:12.145Z,13.20
2019-04-05T05:40:12.084Z,11.40
2019-04-05T05:41:12.072Z,12.60
2019-04-05T05:42:12.057Z,12.20
2019-04-05T05:43:12.045Z,11.90
2019-04-05T05:44:12.093Z,11.80
2019-04-05T05:45:12.027Z,12.00
2019-04-05T05:46:12.012Z,12.00
2019-04-05T05:47:12.039Z,12.30
2019-04-05T05:48:12.027Z,12.20
2019-04-05T05:49:11.999Z,14.60
2019-04-05T05:50:11.990Z,12.50
2019-04-05T05:51:11.963Z,12.90
2019-04-05T05:52:12.015Z,13.10
2019-04-05T05:53:11.947Z,12.70
2019-04-05T05:54:11.954Z,12.90
2019-04-05T05:55:11.913Z,12.60
2019-04-05T05:56:11.912Z,12.60
2019-04-05T05:57:11.888Z,12.90
2019-04-05T05:58:11.877Z,13.10
2019-04-05T05:59:11.908Z,17.20
2019-04-05T06:00:11.860Z,15.20
2019-04-05T06:01:11.856Z,20.20
2019-04-05T06:02:11.847Z,13.30
2019-04-05T06:03:12.079Z,14.80
2019-04-05T06:04:12.852Z,13.10
2019-04-05T06:05:11.847Z,13.20
2019-04-05T06:06:11.793Z,13.10
2019-04-05T06:07:11.786Z,13.10
2019-04-05T06:08:11.771Z,13.10
2019-04-05T06:09:11.765Z,13.00
2019-04-05T06:10:11.752Z,13.40
2019-04-05T06:11:11.751Z,13.80
2019-04-05T06:12:11.727Z,13.20
2019-04-05T06:13:11.717Z,13.40
2019-04-05T06:14:11.700Z,14.40
2019-04-05T06:15:11.695Z,13.80
2019-04-05T06:16:11.698Z,14.20
2019-04-05T06:17:11.689Z,14.10
2019-04-05T06:18:12.752Z,14.00
2019-04-05T06:19:11.651Z,13.00
2019-04-05T06:20:11.635Z,14.30
2019-04-05T06:21:11.631Z,14.10
2019-04-05T06:22:11.617Z,14.40
2019-04-05T06:23:11.612Z,14.50
2019-04-05T06:24:11.590Z,14.10
2019-04-05T06:25:11.584Z,13.90
2019-04-05T06:26:11.575Z,14.70
2019-04-05T06:27:11.566Z,13.80
2019-04-05T06:28:11.576Z,15.30
2019-04-05T06:29:11.541Z,15.50
2019-04-05T06:30:11.529Z,15.20
2019-04-05T06:31:11.514Z,15.10
2019-04-05T06:32:11.502Z,14.10
2019-04-05T06:33:11.502Z,15.70
2019-04-05T06:34:11.485Z,16.10
2019-04-05T06:35:11.475Z,16.40
2019-04-05T06:36:11.465Z,17.30
2019-04-05T06:37:11.456Z,16.70
2019-04-05T06:38:11.493Z,16.80
2019-04-05T06:39:11.435Z,17.50
2019-04-05T06:40:11.419Z,17.00
2019-04-05T06:41:11.402Z,17.70
2019-04-05T06:42:11.410Z,17.20
2019-04-05T06:43:11.390Z,20.00
2019-04-05T06:44:11.390Z,20.00
2019-04-05T06:45:11.370Z,20.60
2019-04-05T06:46:11.354Z,19.40
2019-04-05T06:47:11.387Z,19.80
2019-04-05T06:48:18.895Z,20.70
2019-04-05T06:49:12.313Z,20.40
2019-04-05T06:50:11.305Z,21.80
2019-04-05T06:51:11.294Z,21.50
2019-04-05T06:52:11.286Z,22.20
2019-04-05T06:53:11.289Z,23.00
2019-04-05T06:54:11.278Z,21.90
2019-04-05T06:55:11.252Z,22.70
2019-04-05T06:56:11.246Z,22.50
2019-04-05T06:57:11.251Z,23.70
2019-04-05T06:58:11.229Z,23.50
2019-04-05T06:59:11.231Z,24.00
2019-04-05T07:00:11.208Z,24.10
2019-04-05T07:01:11.191Z,24.30
2019-04-05T07:02:11.177Z,24.50
2019-04-05T07:03:13.568Z,24.90
2019-04-05T07:04:11.162Z,25.20
2019-04-05T07:05:11.201Z,25.40
2019-04-05T07:06:11.138Z,25.50
2019-04-05T07:07:11.160Z,25.00
2019-04-05T07:08:11.111Z,26.90
2019-04-05T07:09:11.147Z,26.20
2019-04-05T07:10:11.135Z,26.60
2019-04-05T07:11:11.107Z,27.50
2019-04-05T07:12:11.066Z,26.80
2019-04-05T07:13:11.060Z,28.10
2019-04-05T07:14:11.041Z,28.80
2019-04-05T07:15:11.043Z,28.90
2019-04-05T07:16:11.302Z,29.80
2019-04-05T07:17:11.017Z,29.40
2019-04-05T07:18:11.005Z,28.20
2019-04-05T07:19:10.989Z,29.30
2019-04-05T07:20:10.977Z,29.80
2019-04-05T07:21:10.967Z,31.10
2019-04-05T07:22:10.968Z,31.80
2019-04-05T07:23:10.951Z,30.90
2019-04-05T07:24:10.943Z,33.40
2019-04-05T07:25:10.929Z,32.10
2019-04-05T07:26:10.917Z,32.20
2019-04-05T07:27:10.967Z,32.80
2019-04-05T07:28:10.896Z,35.00
2019-04-05T07:29:10.883Z,34.70
2019-04-05T07:30:10.897Z,34.50
2019-04-05T07:31:10.866Z,35.70
2019-04-05T07:32:10.850Z,36.60
2019-04-05T07:33:10.847Z,34.50
2019-04-05T07:34:10.833Z,32.00
2019-04-05T07:35:10.814Z,32.90
2019-04-05T07:36:10.828Z,34.20
2019-04-05T07:37:10.825Z,31.80
2019-04-05T07:38:10.784Z,34.10
2019-04-05T07:39:10.770Z,36.20
2019-04-05T07:40:10.793Z,35.30
2019-04-05T07:41:10.753Z,37.40
2019-04-05T07:42:10.757Z,33.30
2019-04-05T07:43:10.736Z,35.30
2019-04-05T07:44:10.712Z,35.30
2019-04-05T07:45:10.705Z,33.80
2019-04-05T07:46:10.692Z,33.30
2019-04-05T07:47:10.701Z,36.30
2019-04-05T07:48:10.674Z,40.60
2019-04-05T07:49:10.666Z,38.30
2019-04-05T07:50:10.653Z,39.70
2019-04-05T07:51:10.649Z,37.30
2019-04-05T07:52:12.909Z,36.10
2019-04-05T07:53:10.617Z,36.90
2019-04-05T07:54:10.603Z,37.70
2019-04-05T07:55:10.599Z,38.60
2019-04-05T07:56:10.593Z,36.20
2019-04-05T07:57:10.581Z,36.40
2019-04-05T07:58:10.568Z,36.20
2019-04-05T07:59:10.604Z,37.60
2019-04-05T08:00:10.544Z,38.80
2019-04-05T08:01:10.526Z,39.00
2019-04-05T08:02:10.517Z,40.10
2019-04-05T08:03:10.565Z,37.90
2019-04-05T08:04:10.555Z,38.20
2019-04-05T08:05:10.484Z,38.70
2019-04-05T08:06:10.563Z,37.20
2019-04-05T08:07:10.460Z,36.50
2019-04-05T08:08:10.453Z,37.10
2019-04-05T08:09:10.455Z,37.00
2019-04-05T08:10:10.438Z,36.10
2019-04-05T08:11:10.423Z,37.50
2019-04-05T08:12:10.454Z,37.50
2019-04-05T08:13:10.397Z,37.00
2019-04-05T08:14:10.391Z,37.70
2019-04-05T08:15:10.378Z,41.80
2019-04-05T08:16:10.375Z,42.20
2019-04-05T08:17:10.349Z,41.40
2019-04-05T08:18:10.400Z,33.80
2019-04-05T08:19:10.408Z,36.30
2019-04-05T08:20:10.322Z,35.80
2019-04-05T08:21:10.309Z,35.70
2019-04-05T08:22:10.299Z,35.30
2019-04-05T08:23:10.284Z,36.60
2019-04-05T08:24:10.279Z,37.60
2019-04-05T08:25:10.355Z,35.40
2019-04-05T08:26:10.255Z,37.30
2019-04-05T08:27:10.315Z,37.90
2019-04-05T08:28:10.230Z,39.60
2019-04-05T08:29:10.246Z,38.50
2019-04-05T08:30:10.214Z,36.70
2019-04-05T08:31:11.106Z,35.60
2019-04-05T08:32:14.743Z,36.80
2019-04-05T08:33:10.179Z,36.20
2019-04-05T08:34:10.163Z,37.60
2019-04-05T08:35:10.175Z,37.00
2019-04-05T08:36:10.179Z,37.40
2019-04-05T08:37:10.147Z,36.70
2019-04-05T08:38:10.123Z,39.30
2019-04-05T08:39:10.120Z,38.90
2019-04-05T08:40:10.099Z,37.40
2019-04-05T08:41:10.145Z,38.80
2019-04-05T08:42:10.890Z,38.30
2019-04-05T08:43:10.069Z,38.90
2019-04-05T08:44:10.062Z,38.20
2019-04-05T08:45:10.047Z,39.70
2019-04-05T08:46:10.123Z,36.70
2019-04-05T08:47:10.083Z,36.30
2019-04-05T08:48:10.015Z,37.60
2019-04-05T08:49:11.456Z,37.70
2019-04-05T08:50:09.997Z,36.90
2019-04-05T08:51:09.982Z,37.30
2019-04-05T08:52:09.967Z,38.40
2019-04-05T08:53:10.019Z,39.30
2019-04-05T08:54:09.943Z,39.30
2019-04-05T08:55:09.937Z,38.60
2019-04-05T08:56:09.931Z,39.40
2019-04-05T08:57:09.911Z,38.90
2019-04-05T08:58:09.960Z,39.80
2019-04-05T08:59:09.898Z,40.10
2019-04-05T09:00:09.879Z,39.20
2019-04-05T09:01:09.872Z,37.20
2019-04-05T09:02:09.860Z,34.00
2019-04-05T09:03:11.927Z,36.50
2019-04-05T09:04:09.836Z,38.00
2019-04-05T09:05:09.868Z,35.50
2019-04-05T09:06:09.816Z,34.80
2019-04-05T09:07:09.806Z,33.90
2019-04-05T09:08:09.793Z,33.10
2019-04-05T09:09:09.860Z,33.20
2019-04-05T09:10:09.774Z,32.70
2019-04-05T09:11:09.769Z,33.30
2019-04-05T09:12:09.755Z,33.50
2019-04-05T09:13:09.776Z,35.40
2019-04-05T09:14:09.728Z,37.20
2019-04-05T09:15:09.783Z,33.30
2019-04-05T09:16:11.717Z,36.20
2019-04-05T09:17:09.698Z,35.60
2019-04-05T09:18:09.685Z,38.70
2019-04-05T09:19:22.760Z,36.20
2019-04-05T09:20:10.661Z,35.30
2019-04-05T09:21:10.179Z,34.00
2019-04-05T09:22:09.642Z,35.80
2019-04-05T09:23:09.627Z,34.90
2019-04-05T09:24:09.613Z,33.70
2019-04-05T09:25:09.664Z,35.60
2019-04-05T09:26:09.590Z,32.40
2019-04-05T09:27:09.659Z,35.50
2019-04-05T09:28:09.577Z,40.50
2019-04-05T09:29:09.606Z,40.70
2019-04-05T09:30:09.547Z,36.00
2019-04-05T09:31:09.593Z,36.40
2019-04-05T09:32:09.526Z,35.40
2019-04-05T09:33:09.524Z,35.90
2019-04-05T09:34:09.519Z,36.70
2019-04-05T09:35:09.522Z,37.70
2019-04-05T09:36:09.494Z,39.30
2019-04-05T09:37:09.471Z,39.70
2019-04-05T09:38:09.470Z,40.00
2019-04-05T09:39:14.977Z,37.30
2019-04-05T09:40:10.521Z,34.00
2019-04-05T09:41:09.506Z,36.90
2019-04-05T09:42:09.417Z,38.10
2019-04-05T09:43:09.429Z,37.40
2019-04-05T09:44:09.397Z,37.20
2019-04-05T09:45:09.388Z,37.70
2019-04-05T09:46:09.383Z,39.00
2019-04-05T09:47:09.418Z,34.30
2019-04-05T09:48:09.354Z,37.50
2019-04-05T09:49:09.338Z,40.50
2019-04-05T09:50:09.326Z,39.20
2019-04-05T09:51:09.395Z,38.60
2019-04-05T09:52:09.306Z,40.00
2019-04-05T09:53:09.399Z,40.90
2019-04-05T09:54:09.281Z,38.00
2019-04-05T09:55:09.277Z,39.10
2019-04-05T09:56:09.264Z,39.80
2019-04-05T09:57:09.253Z,41.90
2019-04-05T09:58:10.238Z,40.40
2019-04-05T09:59:09.292Z,41.10
2019-04-05T10:00:09.221Z,40.90
2019-04-05T10:01:09.285Z,41.10
2019-04-05T10:02:09.199Z,41.30
2019-04-05T10:03:09.189Z,41.20
2019-04-05T10:04:09.172Z,41.90
2019-04-05T10:05:09.164Z,41.30
2019-04-05T10:06:09.155Z,41.90
2019-04-05T10:07:09.157Z,40.70
2019-04-05T10:08:09.144Z,42.20
2019-04-05T10:09:09.179Z,41.90
2019-04-05T10:10:09.105Z,41.50
2019-04-05T10:11:09.103Z,45.90
2019-04-05T10:12:09.186Z,44.80
2019-04-05T10:13:09.919Z,45.70
2019-04-05T10:14:09.075Z,44.70
2019-04-05T10:15:09.067Z,42.20
2019-04-05T10:16:09.048Z,43.70
2019-04-05T10:17:09.035Z,45.70
2019-04-05T10:18:09.083Z,42.70
2019-04-05T10:19:09.015Z,43.50
2019-04-05T10:20:09.079Z,43.10
2019-04-05T10:21:08.987Z,44.60
2019-04-05T10:22:08.985Z,42.20
2019-04-05T10:23:08.968Z,42.70
2019-04-05T10:24:09.056Z,42.60
2019-04-05T10:25:08.946Z,43.30
2019-04-05T10:26:08.935Z,46.70
2019-04-05T10:27:08.922Z,44.90
2019-04-05T10:28:08.914Z,42.90
2019-04-05T10:29:08.898Z,43.90
2019-04-05T10:30:08.946Z,43.80
2019-04-05T10:31:08.888Z,45.60
2019-04-05T10:32:08.873Z,44.80
2019-04-05T10:33:08.862Z,44.80
2019-04-05T10:34:08.845Z,44.80
2019-04-05T10:35:08.919Z,44.70
2019-04-05T10:36:08.853Z,45.40
2019-04-05T10:37:08.822Z,44.60
2019-04-05T10:38:08.807Z,44.10
2019-04-05T10:39:08.795Z,44.40
2019-04-05T10:40:08.863Z,42.80
2019-04-05T10:41:08.776Z,43.30
2019-04-05T10:42:08.781Z,43.50
2019-04-05T10:43:08.754Z,43.50
2019-04-05T10:44:08.739Z,44.00
2019-04-05T10:45:08.728Z,43.30
2019-04-05T10:46:08.775Z,43.30
2019-04-05T10:47:08.763Z,41.90
2019-04-05T10:48:08.695Z,41.80
2019-04-05T10:49:08.682Z,41.70
2019-04-05T10:50:08.671Z,42.00
2019-04-05T10:51:08.670Z,42.90
2019-04-05T10:52:08.655Z,42.90
2019-04-05T10:53:08.722Z,43.80
2019-04-05T10:54:09.567Z,43.40
2019-04-05T10:55:08.621Z,42.50
2019-04-05T10:56:08.605Z,42.70
2019-04-05T10:57:08.598Z,42.50
2019-04-05T10:58:08.649Z,39.80
2019-04-05T10:59:08.573Z,39.00
2019-04-05T11:00:08.570Z,38.00
2019-04-05T11:01:08.563Z,37.80
2019-04-05T11:02:08.540Z,37.30
2019-04-05T11:03:08.588Z,40.60
2019-04-05T11:04:08.524Z,37.30
2019-04-05T11:05:08.512Z,36.80
2019-04-05T11:06:08.557Z,37.90
2019-04-05T11:07:08.490Z,37.50
2019-04-05T11:08:08.536Z,37.40
2019-04-05T11:09:08.525Z,36.80
2019-04-05T11:10:08.454Z,37.10
2019-04-05T11:11:08.505Z,37.30
2019-04-05T11:12:08.798Z,36.20
2019-04-05T11:13:08.428Z,35.10
2019-04-05T11:14:13.851Z,36.70
2019-04-05T11:15:09.404Z,36.30
2019-04-05T11:16:08.427Z,34.60
2019-04-05T11:17:08.382Z,33.20
2019-04-05T11:18:08.376Z,34.40
2019-04-05T11:19:08.366Z,34.20
2019-04-05T11:20:20.660Z,34.30
2019-04-05T11:21:09.331Z,34.50
2019-04-05T11:22:08.331Z,34.50
2019-04-05T11:23:08.316Z,34.90
2019-04-05T11:24:08.301Z,34.50
2019-04-05T11:25:08.329Z,34.40
2019-04-05T11:26:08.361Z,34.00
2019-04-05T11:27:08.268Z,34.40
2019-04-05T11:28:08.271Z,34.90
2019-04-05T11:29:08.248Z,36.00
2019-04-05T11:30:08.245Z,33.70
2019-04-05T11:31:08.225Z,34.10
2019-04-05T11:32:08.272Z,34.00
2019-04-05T11:33:08.201Z,33.00
2019-04-05T11:34:08.194Z,33.60
2019-04-05T11:35:08.183Z,32.40
2019-04-05T11:36:08.185Z,30.60
2019-04-05T11:37:08.180Z,31.60
2019-04-05T11:38:08.146Z,31.60
2019-04-05T11:39:08.141Z,32.70
2019-04-05T11:40:08.142Z,32.50
2019-04-05T11:41:08.163Z,31.60
2019-04-05T11:42:08.165Z,32.80
2019-04-05T11:43:08.098Z,31.40
2019-04-05T11:44:08.089Z,31.60
2019-04-05T11:45:08.071Z,30.90
2019-04-05T11:46:08.063Z,30.50
2019-04-05T11:47:08.107Z,29.10
2019-04-05T11:48:08.037Z,30.00
2019-04-05T11:49:08.052Z,29.40
2019-04-05T11:50:08.036Z,30.50
2019-04-05T11:51:08.004Z,31.40
2019-04-05T11:52:08.055Z,32.20
2019-04-05T11:53:08.041Z,30.60
2019-04-05T11:54:07.977Z,29.00
2019-04-05T11:55:07.967Z,30.10
2019-04-05T11:56:14.401Z,30.40
2019-04-05T11:57:08.939Z,29.90
2019-04-05T11:58:08.095Z,30.20
2019-04-05T11:59:07.923Z,30.80
2019-04-05T12:00:07.936Z,29.90
2019-04-05T12:01:07.893Z,29.80
2019-04-05T12:02:07.882Z,29.00
2019-04-05T12:03:09.661Z,28.80
2019-04-05T12:04:07.930Z,29.20
2019-04-05T12:05:07.848Z,29.90
2019-04-05T12:06:07.844Z,28.60
2019-04-05T12:07:07.843Z,28.40
2019-04-05T12:08:07.817Z,29.30
2019-04-05T12:09:07.866Z,28.70
2019-04-05T12:10:07.800Z,28.50
2019-04-05T12:11:07.805Z,29.90
2019-04-05T12:12:07.774Z,29.30
2019-04-05T12:13:07.766Z,29.20
2019-04-05T12:14:07.771Z,29.40
2019-04-05T12:15:07.745Z,29.70
2019-04-05T12:16:10.374Z,30.80
2019-04-05T12:17:09.689Z,29.60
2019-04-05T12:18:07.766Z,29.50
2019-04-05T12:19:07.755Z,29.40
2019-04-05T12:20:07.726Z,29.10
2019-04-05T12:21:07.690Z,28.40
2019-04-05T12:22:09.108Z,28.90
2019-04-05T12:23:07.653Z,29.70
2019-04-05T12:24:07.642Z,30.00
2019-04-05T12:25:07.706Z,30.10
2019-04-05T12:26:07.621Z,31.80
2019-04-05T12:27:07.640Z,30.20
2019-04-05T12:28:10.436Z,31.10
2019-04-05T12:29:07.589Z,29.50
2019-04-05T12:30:07.641Z,30.30
2019-04-05T12:31:07.566Z,30.00
2019-04-05T12:32:07.562Z,29.60
2019-04-05T12:33:13.559Z,29.50
2019-04-05T12:34:08.540Z,30.30
2019-04-05T12:35:08.396Z,30.30
2019-04-05T12:36:07.518Z,31.70
2019-04-05T12:37:07.498Z,32.00
2019-04-05T12:38:07.491Z,30.60
2019-04-05T12:39:08.184Z,30.70
2019-04-05T12:40:09.808Z,31.00
2019-04-05T12:41:10.811Z,30.20
2019-04-05T12:42:07.446Z,30.80
2019-04-05T12:43:07.437Z,30.30
2019-04-05T12:44:07.425Z,30.10
2019-04-05T12:45:07.414Z,30.90
2019-04-05T12:46:07.464Z,29.30
2019-04-05T12:47:07.391Z,31.70
2019-04-05T12:48:07.381Z,31.00
2019-04-05T12:49:07.369Z,30.80
2019-04-05T12:50:07.362Z,31.70
2019-04-05T12:51:07.387Z,30.50
2019-04-05T12:52:07.341Z,30.50
2019-04-05T12:53:07.383Z,29.70
2019-04-05T12:54:07.318Z,31.20
2019-04-05T12:55:07.302Z,29.60
2019-04-05T12:56:07.373Z,30.30